Time;durP1;ratioP1;P1;durP2;ratioP2;P2;SDS_P1;SDS_P2;PMS_P1;PMS_P2;Temp;Humidity;BMP_temperature;BMP_pressure;BME280_temperature;BME280_humidity;BME280_pressure;Samples;Min_cycle;Max_cycle;Signal;HPM_P1;HPM_P2
2023/03/19 00:03:25;;;;;;;8.07;6.70;;;12.10;29.70;;;;;;10403092;28;20247;-73
2023/03/19 00:08:28;;;;;;;9.80;8.27;;;12.10;29.70;;;;;;10396029;28;20252;-73
2023/03/19 00:13:32;;;;;;;10.20;8.50;;;12.10;29.70;;;;;;10392667;28;20229;-73
2023/03/19 00:18:36;;;;;;;8.53;6.83;;;12.10;29.70;;;;;;10398580;28;20245;-73
2023/03/19 00:23:39;;;;;;;10.00;8.50;;;12.00;29.70;;;;;;10398961;28;20225;-73
2023/03/19 00:28:42;;;;;;;11.33;8.30;;;12.00;29.70;;;;;;10398057;28;20261;-73
2023/03/19 00:33:47;;;;;;;8.33;7.03;;;11.90;29.60;;;;;;10402333;28;20229;-73
2023/03/19 00:38:50;;;;;;;9.63;6.27;;;11.80;29.60;;;;;;10401141;28;20236;-73
2023/03/19 00:43:54;;;;;;;6.80;6.10;;;11.70;29.50;;;;;;10400168;28;20268;-73
2023/03/19 00:48:58;;;;;;;9.87;6.90;;;11.60;29.90;;;;;;10397572;28;20738;-73
2023/03/19 00:54:01;;;;;;;10.03;7.83;;;11.60;30.10;;;;;;10391518;28;20228;-73
2023/03/19 00:59:05;;;;;;;9.13;7.60;;;11.60;30.00;;;;;;10393708;28;20245;-73
2023/03/19 01:04:11;;;;;;;9.20;7.93;;;11.70;30.00;;;;;;10395668;28;20221;-73
2023/03/19 01:09:15;;;;;;;9.57;8.57;;;11.60;30.20;;;;;;10399183;28;20362;-73
2023/03/19 01:14:18;;;;;;;10.50;8.27;;;11.60;30.00;;;;;;10393250;28;20253;-73
2023/03/19 01:19:23;;;;;;;10.77;7.67;;;11.60;30.00;;;;;;10395066;28;20232;-73
2023/03/19 01:24:29;;;;;;;7.53;6.83;;;11.50;30.40;;;;;;10395878;28;20241;-73
2023/03/19 01:29:32;;;;;;;9.77;7.83;;;11.40;30.70;;;;;;10394609;28;20241;-73
2023/03/19 01:34:37;;;;;;;8.03;6.87;;;11.40;31.10;;;;;;10390139;28;20236;-73
2023/03/19 01:39:40;;;;;;;8.00;6.60;;;11.40;30.90;;;;;;10400865;28;20238;-73
2023/03/19 01:44:45;;;;;;;6.77;6.07;;;11.30;30.40;;;;;;10397644;28;20299;-73
2023/03/19 01:49:53;;;;;;;6.93;6.10;;;11.30;30.60;;;;;;10398749;28;20237;-73
2023/03/19 01:54:59;;;;;;;9.90;7.80;;;11.40;31.20;;;;;;10391153;28;20280;-73
2023/03/19 02:00:06;;;;;;;7.50;6.10;;;11.40;30.80;;;;;;10393212;28;20229;-73
2023/03/19 02:05:13;;;;;;;8.00;6.43;;;11.30;30.80;;;;;;10391095;28;20225;-73
2023/03/19 02:10:17;;;;;;;9.30;6.67;;;11.30;31.20;;;;;;10394926;28;20239;-73
2023/03/19 02:15:20;;;;;;;10.63;7.43;;;11.30;30.80;;;;;;10395480;28;20255;-73
2023/03/19 02:20:30;;;;;;;8.40;7.43;;;11.30;30.90;;;;;;10391689;28;20597;-74
2023/03/19 02:25:41;;;;;;;11.17;7.50;;;11.30;31.70;;;;;;10391124;28;20222;-73
2023/03/19 02:30:47;;;;;;;8.37;7.47;;;11.20;32.00;;;;;;10396892;28;20221;-74
2023/03/19 02:35:52;;;;;;;7.20;6.43;;;11.20;31.80;;;;;;10387892;28;20376;-73
2023/03/19 02:40:59;;;;;;;8.67;7.20;;;11.10;31.60;;;;;;10393673;28;20785;-73
2023/03/19 02:46:05;;;;;;;8.83;7.00;;;11.00;31.90;;;;;;10394519;28;20279;-73
2023/03/19 02:51:08;;;;;;;7.37;6.03;;;10.90;32.00;;;;;;10393091;28;20221;-73
2023/03/19 02:56:11;;;;;;;7.13;6.43;;;11.00;31.70;;;;;;10392588;28;20233;-73
2023/03/19 03:01:16;;;;;;;7.23;6.50;;;11.00;31.80;;;;;;10406182;28;20587;-73
2023/03/19 03:06:19;;;;;;;10.73;6.40;;;11.10;32.10;;;;;;10401666;28;20602;-73
2023/03/19 03:11:22;;;;;;;8.43;6.93;;;11.10;31.80;;;;;;10405060;28;20238;-73
2023/03/19 03:16:27;;;;;;;8.30;7.17;;;11.10;31.90;;;;;;10399041;28;20228;-74
2023/03/19 03:21:31;;;;;;;10.33;7.60;;;11.10;32.30;;;;;;10406359;28;20229;-73
2023/03/19 03:26:38;;;;;;;8.20;6.67;;;11.10;31.90;;;;;;10395640;28;20395;-73
2023/03/19 03:31:43;;;;;;;8.83;6.13;;;11.10;31.90;;;;;;10399423;28;20237;-73
2023/03/19 03:36:46;;;;;;;7.40;6.70;;;11.10;32.30;;;;;;10404475;28;20316;-74
2023/03/19 03:41:50;;;;;;;8.17;7.37;;;11.10;31.90;;;;;;10392181;28;20238;-73
2023/03/19 03:46:55;;;;;;;8.80;7.53;;;11.10;32.00;;;;;;10405121;28;20233;-73
2023/03/19 03:51:58;;;;;;;8.37;6.97;;;11.00;32.50;;;;;;10396508;28;20234;-73
2023/03/19 03:57:02;;;;;;;8.67;7.07;;;10.90;32.40;;;;;;10396041;28;20238;-74
2023/03/19 04:02:07;;;;;;;6.80;6.10;;;10.90;32.50;;;;;;10393548;28;20695;-73
2023/03/19 04:07:11;;;;;;;7.00;6.37;;;10.90;32.90;;;;;;10391085;28;20222;-73
2023/03/19 04:12:14;;;;;;;7.23;6.50;;;10.90;32.50;;;;;;10401513;28;20241;-73
2023/03/19 04:17:19;;;;;;;9.50;7.33;;;10.90;32.60;;;;;;10398136;28;20221;-73
2023/03/19 04:22:23;;;;;;;7.60;6.27;;;10.90;33.00;;;;;;10401449;28;20272;-73
2023/03/19 04:27:26;;;;;;;7.33;6.63;;;10.90;32.60;;;;;;10399335;28;20225;-73
2023/03/19 04:32:30;;;;;;;7.77;6.80;;;10.80;32.90;;;;;;10400455;28;20299;-73
2023/03/19 04:37:33;;;;;;;7.40;6.10;;;10.80;33.50;;;;;;10395606;28;20222;-73
2023/03/19 04:42:36;;;;;;;6.80;6.17;;;10.80;33.00;;;;;;10392147;28;21243;-73
2023/03/19 04:47:41;;;;;;;6.30;5.67;;;10.90;33.20;;;;;;10404206;28;20217;-73
2023/03/19 04:52:44;;;;;;;7.70;6.73;;;10.90;33.60;;;;;;10399286;28;20228;-75
2023/03/19 04:57:47;;;;;;;6.63;5.90;;;10.90;33.20;;;;;;10395113;28;20654;-74
2023/03/19 05:02:52;;;;;;;8.67;6.60;;;10.90;33.20;;;;;;10391759;28;20256;-74
2023/03/19 05:07:56;;;;;;;8.37;7.07;;;11.00;33.80;;;;;;10387778;28;20235;-73
2023/03/19 05:12:59;;;;;;;7.27;6.57;;;11.00;33.40;;;;;;10394873;28;20755;-73
2023/03/19 05:18:04;;;;;;;7.27;6.60;;;10.90;33.50;;;;;;10391553;28;20713;-73
2023/03/19 05:23:07;;;;;;;8.03;6.40;;;10.90;34.00;;;;;;10395686;28;20234;-74
2023/03/19 05:28:11;;;;;;;7.47;6.77;;;10.90;33.90;;;;;;10399664;28;20234;-74
2023/03/19 05:33:15;;;;;;;7.90;6.00;;;10.90;34.60;;;;;;10394558;28;20244;-74
2023/03/19 05:38:19;;;;;;;7.97;6.47;;;10.90;34.10;;;;;;10398548;28;20233;-74
2023/03/19 05:43:22;;;;;;;7.13;6.43;;;10.90;33.90;;;;;;10384634;28;20249;-74
2023/03/19 05:48:27;;;;;;;7.97;7.17;;;11.00;33.80;;;;;;10391518;28;20283;-74
2023/03/19 05:53:30;;;;;;;8.17;7.37;;;10.90;34.30;;;;;;10393123;28;20226;-74
2023/03/19 05:58:33;;;;;;;8.33;7.53;;;10.90;34.10;;;;;;10392545;28;20237;-74
2023/03/19 06:03:37;;;;;;;8.50;7.37;;;10.90;34.40;;;;;;10400375;28;20701;-73
2023/03/19 06:08:41;;;;;;;8.27;7.47;;;10.80;34.90;;;;;;10379264;28;20226;-74
2023/03/19 06:13:45;;;;;;;8.97;8.07;;;10.80;35.00;;;;;;10386454;28;20222;-74
2023/03/19 06:18:49;;;;;;;9.47;8.10;;;10.80;35.10;;;;;;10392986;28;20234;-74
2023/03/19 06:23:53;;;;;;;9.13;8.23;;;10.80;35.60;;;;;;10399119;28;20248;-74
2023/03/19 06:28:56;;;;;;;9.00;8.20;;;10.80;35.30;;;;;;10399399;28;20236;-75
2023/03/19 06:34:01;;;;;;;13.57;8.40;;;10.90;35.50;;;;;;10386161;28;20232;-75
2023/03/19 06:39:04;;;;;;;10.23;8.27;;;10.90;36.10;;;;;;10393739;28;20689;-75
2023/03/19 06:44:07;;;;;;;7.67;6.97;;;10.90;35.70;;;;;;10395834;28;20276;-72
2023/03/19 06:49:11;;;;;;;8.80;7.87;;;11.00;35.50;;;;;;10392264;28;20230;-72
2023/03/19 06:54:15;;;;;;;9.73;8.77;;;11.10;36.20;;;;;;10391148;28;20729;-73
2023/03/19 06:59:18;;;;;;;9.50;8.50;;;11.10;35.70;;;;;;10396947;28;20232;-72
2023/03/19 07:04:22;;;;;;;9.87;8.70;;;11.20;35.70;;;;;;10394427;28;20586;-72
2023/03/19 07:09:26;;;;;;;9.40;8.50;;;11.40;36.20;;;;;;10397042;28;20790;-72
2023/03/19 07:14:29;;;;;;;16.20;13.50;;;11.40;35.70;;;;;;10390543;28;20237;-72
2023/03/19 07:19:33;;;;;;;15.37;12.10;;;11.50;35.90;;;;;;10387856;28;20234;-73
2023/03/19 07:24:37;;;;;;;12.17;10.33;;;11.60;36.50;;;;;;10395619;28;20229;-72
2023/03/19 07:29:40;;;;;;;12.27;10.63;;;11.60;35.80;;;;;;10387860;28;20283;-73
2023/03/19 07:34:44;;;;;;;9.40;8.40;;;11.70;36.10;;;;;;10388448;28;20236;-72
2023/03/19 07:39:47;;;;;;;10.77;9.27;;;11.70;36.50;;;;;;10394726;28;20230;-72
2023/03/19 07:44:51;;;;;;;10.17;9.17;;;11.80;36.30;;;;;;10395371;28;20717;-72
2023/03/19 07:49:55;;;;;;;7.90;7.10;;;11.90;36.50;;;;;;10402947;28;21039;-72
2023/03/19 07:54:58;;;;;;;8.60;7.80;;;12.00;36.90;;;;;;10402951;28;20736;-72
2023/03/19 08:00:01;;;;;;;7.90;7.10;;;12.10;36.80;;;;;;10399799;28;20739;-72
2023/03/19 08:05:07;;;;;;;7.50;6.37;;;12.20;37.00;;;;;;10400288;28;20291;-72
2023/03/19 08:10:11;;;;;;;9.23;6.70;;;12.40;37.80;;;;;;10403883;28;20237;-72
2023/03/19 08:15:14;;;;;;;7.97;6.73;;;12.50;37.40;;;;;;10396639;28;20241;-72
2023/03/19 08:20:20;;;;;;;7.77;6.33;;;12.70;37.50;;;;;;10392292;28;20232;-72
2023/03/19 08:25:23;;;;;;;8.20;6.57;;;12.80;37.80;;;;;;10397372;28;20233;-72
2023/03/19 08:30:26;;;;;;;8.47;7.00;;;13.00;37.40;;;;;;10390480;28;20237;-71
2023/03/19 08:35:31;;;;;;;7.87;7.00;;;13.10;37.30;;;;;;10381687;28;20904;-72
2023/03/19 08:40:34;;;;;;;7.37;6.67;;;13.20;37.50;;;;;;10384283;28;20226;-73
2023/03/19 08:45:38;;;;;;;6.40;5.80;;;13.30;36.90;;;;;;10392056;28;20244;-73
2023/03/19 08:50:43;;;;;;;7.73;6.07;;;13.40;36.90;;;;;;10397615;28;20233;-71
2023/03/19 08:55:51;;;;;;;6.23;5.63;;;13.50;37.30;;;;;;10396663;28;20237;-73
2023/03/19 09:01:01;;;;;;;5.73;5.13;;;13.60;37.90;;;;;;10385427;28;20230;-73
2023/03/19 09:06:09;;;;;;;6.17;5.40;;;13.70;38.00;;;;;;10394192;28;20234;-73
2023/03/19 09:11:13;;;;;;;5.90;5.00;;;13.80;37.50;;;;;;10392598;28;20233;-72
2023/03/19 09:16:16;;;;;;;5.97;5.07;;;13.90;36.90;;;;;;10389291;28;20897;-73
2023/03/19 09:21:21;;;;;;;5.20;4.70;;;14.00;37.10;;;;;;10391573;28;20233;-73
2023/03/19 09:26:24;;;;;;;4.90;4.33;;;14.10;37.30;;;;;;10402158;28;20799;-72
2023/03/19 09:31:27;;;;;;;5.33;4.27;;;14.10;37.30;;;;;;10384109;28;20321;-72
2023/03/19 09:36:33;;;;;;;5.33;4.50;;;14.10;37.40;;;;;;10390988;28;20734;-72
2023/03/19 09:41:44;;;;;;;5.27;4.37;;;14.00;37.40;;;;;;10389797;28;20285;-72
2023/03/19 09:46:52;;;;;;;4.43;4.03;;;14.10;37.90;;;;;;10391610;28;20245;-71
2023/03/19 09:52:01;;;;;;;4.13;3.73;;;14.10;37.70;;;;;;10389043;28;20265;-71
2023/03/19 09:57:05;;;;;;;4.50;3.63;;;14.10;38.00;;;;;;10395844;28;20226;-71
2023/03/19 10:02:29;;;;;;;4.33;3.93;;;14.10;37.40;;;;;;10399367;28;20271;-71
2023/03/19 10:08:00;;;;;;;4.03;3.73;;;14.20;38.40;;;;;;10398416;28;20233;-72
2023/03/19 10:13:14;;;;;;;3.90;3.60;;;14.30;38.50;;;;;;10390503;28;20230;-73
2023/03/19 10:18:19;;;;;;;3.90;3.60;;;14.40;38.20;;;;;;10388274;28;20582;-73
2023/03/19 10:23:44;;;;;;;5.00;4.00;;;14.40;37.70;;;;;;10386939;28;20237;-73
2023/03/19 10:29:01;;;;;;;4.00;3.60;;;14.50;38.50;;;;;;10390446;28;20614;-72
2023/03/19 10:34:15;;;;;;;4.27;3.87;;;14.50;39.50;;;;;;10389839;28;20935;-72
2023/03/19 10:39:20;;;;;;;3.73;3.43;;;14.50;38.60;;;;;;10388727;28;20232;-71
2023/03/19 10:44:30;;;;;;;3.23;2.70;;;14.60;38.10;;;;;;10395401;28;20264;-73
2023/03/19 10:49:36;;;;;;;5.60;2.97;;;14.60;37.90;;;;;;10387821;28;20234;-72
2023/03/19 10:54:44;;;;;;;2.97;2.77;;;14.70;37.80;;;;;;10389651;28;20701;-72
2023/03/19 10:59:48;;;;;;;3.10;2.80;;;14.80;38.30;;;;;;10391340;28;20229;-72
2023/03/19 11:05:07;;;;;;;3.23;2.67;;;14.80;37.30;;;;;;10383618;28;20236;-73
2023/03/19 11:10:16;;;;;;;4.07;2.70;;;14.90;38.20;;;;;;10386944;28;20642;-72
2023/03/19 11:15:21;;;;;;;3.20;2.60;;;15.00;37.50;;;;;;10392177;28;20308;-73
2023/03/19 11:20:29;;;;;;;2.83;2.63;;;15.00;37.30;;;;;;10390003;28;20619;-73
2023/03/19 11:25:39;;;;;;;2.50;2.30;;;15.10;37.30;;;;;;10404236;28;20259;-73
2023/03/19 11:30:53;;;;;;;3.20;2.40;;;15.20;38.70;;;;;;10393046;28;20237;-72
2023/03/19 11:36:05;;;;;;;2.07;1.93;;;15.30;37.30;;;;;;10397282;28;20238;-73
2023/03/19 11:41:21;;;;;;;2.20;1.90;;;15.50;37.00;;;;;;10389688;28;20268;-73
2023/03/19 11:46:34;;;;;;;1.97;1.87;;;15.60;36.80;;;;;;10398217;28;20284;-73
2023/03/19 11:51:46;;;;;;;2.20;2.00;;;15.70;36.60;;;;;;10395803;28;20311;-72
2023/03/19 11:56:58;;;;;;;1.67;1.57;;;15.70;36.30;;;;;;10406120;28;20230;-72
2023/03/19 12:02:20;;;;;;;2.10;1.80;;;15.80;35.90;;;;;;10400505;28;20222;-72
2023/03/19 12:07:31;;;;;;;1.63;1.50;;;15.90;36.30;;;;;;10400383;28;20225;-72
2023/03/19 12:12:46;;;;;;;1.53;1.43;;;16.00;35.90;;;;;;10388276;28;20652;-73
2023/03/19 12:18:01;;;;;;;1.50;1.40;;;16.10;35.80;;;;;;10387923;28;20225;-74
2023/03/19 12:23:12;;;;;;;1.57;1.47;;;16.20;35.80;;;;;;10396444;28;20318;-72
2023/03/19 12:28:23;;;;;;;1.50;1.40;;;16.20;35.90;;;;;;10391370;28;20274;-71
2023/03/19 12:33:41;;;;;;;1.70;1.60;;;16.40;35.50;;;;;;10387943;28;20702;-72
2023/03/19 12:38:48;;;;;;;1.87;1.70;;;16.50;35.40;;;;;;10379596;28;20285;-73
2023/03/19 12:43:58;;;;;;;2.07;1.87;;;16.60;35.20;;;;;;10396808;28;20288;-71
2023/03/19 12:49:07;;;;;;;1.90;1.80;;;16.80;35.30;;;;;;10391503;28;20229;-71
2023/03/19 12:54:14;;;;;;;2.43;2.00;;;16.80;34.60;;;;;;10397812;28;20213;-71
2023/03/19 12:59:29;;;;;;;2.23;1.90;;;16.80;34.40;;;;;;10391213;28;20222;-73
2023/03/19 13:04:37;;;;;;;1.93;1.83;;;16.90;34.80;;;;;;10374625;28;20653;-73
2023/03/19 13:09:48;;;;;;;2.10;1.90;;;16.90;34.40;;;;;;10390360;28;20257;-73
2023/03/19 13:14:58;;;;;;;2.87;1.73;;;17.00;34.20;;;;;;10391882;28;20229;-72
2023/03/19 13:20:13;;;;;;;2.13;1.80;;;17.00;34.20;;;;;;10395517;28;20229;-71
2023/03/19 13:25:21;;;;;;;2.23;2.00;;;17.10;34.30;;;;;;10391007;28;20253;-71
2023/03/19 13:30:26;;;;;;;2.10;2.00;;;17.10;34.50;;;;;;10391928;28;20238;-72
2023/03/19 13:35:37;;;;;;;3.80;2.00;;;17.10;34.00;;;;;;10399953;28;20225;-72
2023/03/19 13:40:47;;;;;;;3.13;2.10;;;17.10;34.70;;;;;;10388073;28;20233;-70
2023/03/19 13:46:03;;;;;;;2.50;2.17;;;17.10;34.00;;;;;;10394895;28;20702;-71
2023/03/19 13:51:25;;;;;;;2.30;2.07;;;17.10;34.00;;;;;;10395051;28;20242;-70
2023/03/19 13:56:29;;;;;;;2.10;1.90;;;17.10;34.00;;;;;;10394273;28;20317;-71
2023/03/19 14:01:43;;;;;;;1.90;1.80;;;17.20;34.20;;;;;;10394250;28;20268;-71
2023/03/19 14:06:48;;;;;;;3.27;1.83;;;17.20;34.00;;;;;;10394099;28;20240;-72
2023/03/19 14:11:52;;;;;;;2.70;2.13;;;17.30;34.10;;;;;;10390591;28;20268;-71
2023/03/19 14:16:56;;;;;;;2.47;2.27;;;17.30;34.10;;;;;;10398381;28;20236;-71
2023/03/19 14:22:09;;;;;;;2.30;2.10;;;17.40;34.20;;;;;;10395092;28;20238;-71
2023/03/19 14:27:16;;;;;;;2.07;1.90;;;17.40;34.20;;;;;;10389618;28;20280;-72
2023/03/19 14:32:28;;;;;;;1.90;1.80;;;17.30;34.10;;;;;;10383841;28;20260;-71
2023/03/19 14:37:41;;;;;;;1.83;1.73;;;17.30;34.10;;;;;;10377992;28;20218;-71
2023/03/19 14:42:57;;;;;;;2.03;1.93;;;17.30;34.10;;;;;;10392298;28;20244;-71
2023/03/19 14:48:26;;;;;;;2.83;1.80;;;17.40;33.40;;;;;;10382930;28;20229;-72
2023/03/19 14:53:37;;;;;;;2.00;1.90;;;17.50;33.60;;;;;;10390005;28;20284;-72
2023/03/19 14:58:49;;;;;;;2.77;1.80;;;17.50;32.80;;;;;;10387764;28;20265;-72
2023/03/19 15:03:58;;;;;;;2.50;2.10;;;17.50;32.70;;;;;;10381515;28;20233;-74
2023/03/19 15:09:04;;;;;;;2.47;1.90;;;17.60;32.30;;;;;;10391490;28;20233;-72
2023/03/19 15:14:23;;;;;;;3.00;2.10;;;17.60;33.00;;;;;;10399253;28;20225;-72
2023/03/19 15:19:30;;;;;;;1.80;1.70;;;17.60;31.90;;;;;;10383183;28;20229;-72
2023/03/19 15:24:35;;;;;;;2.07;1.90;;;17.60;32.20;;;;;;10392386;28;20644;-72
2023/03/19 15:29:38;;;;;;;2.80;1.70;;;17.60;32.40;;;;;;10393828;28;20237;-72
2023/03/19 15:34:44;;;;;;;1.70;1.60;;;17.60;32.40;;;;;;10392351;28;20234;-72
2023/03/19 17:11:45;;;;;;;6.83;4.23;;;13.50;38.80;;;;;;10497302;27;21356;-68
2023/03/19 17:16:50;;;;;;;5.77;4.60;;;13.60;39.80;;;;;;10493371;27;20219;-68
2023/03/19 17:21:56;;;;;;;4.73;4.33;;;14.30;38.40;;;;;;10503266;28;20303;-72
2023/03/19 17:27:03;;;;;;;3.40;3.10;;;14.90;37.70;;;;;;10495376;28;20232;-68
2023/03/19 17:32:14;;;;;;;5.63;3.50;;;15.30;36.90;;;;;;10495531;28;20224;-68
2023/03/19 17:37:17;;;;;;;4.60;4.07;;;15.70;36.30;;;;;;10496817;28;20223;-68
2023/03/19 17:42:24;;;;;;;6.67;6.07;;;15.90;35.60;;;;;;10497086;28;20227;-68
2023/03/19 17:47:27;;;;;;;5.30;4.70;;;16.00;35.40;;;;;;10493628;28;20777;-72
2023/03/19 17:52:30;;;;;;;3.73;3.40;;;16.10;35.00;;;;;;10492552;28;20790;-72
2023/03/19 17:57:35;;;;;;;4.27;3.87;;;16.10;34.80;;;;;;10500200;28;20234;-71
2023/03/19 18:02:39;;;;;;;4.33;3.27;;;16.10;34.60;;;;;;10488181;28;20223;-71
2023/03/19 18:07:43;;;;;;;4.57;4.17;;;16.10;34.30;;;;;;10493072;28;20317;-72
2023/03/19 18:12:49;;;;;;;5.33;4.83;;;16.10;34.30;;;;;;10490843;28;20228;-72
2023/03/19 18:17:55;;;;;;;5.47;5.03;;;16.10;34.40;;;;;;10492940;28;20243;-71
2023/03/19 18:22:59;;;;;;;9.07;8.17;;;16.00;34.40;;;;;;10462667;28;20224;-70
2023/03/19 18:28:04;;;;;;;10.80;9.83;;;16.00;34.20;;;;;;10463123;28;20235;-70
2023/03/19 18:33:13;;;;;;;10.10;9.20;;;16.00;34.40;;;;;;10465369;28;20277;-70
2023/03/19 18:38:19;;;;;;;6.77;6.07;;;16.00;34.50;;;;;;10465492;28;20274;-70
2023/03/19 18:43:24;;;;;;;5.57;4.80;;;16.00;34.30;;;;;;10460313;28;20229;-70
2023/03/19 18:48:30;;;;;;;4.13;3.73;;;15.90;34.10;;;;;;10465772;28;20225;-70
2023/03/19 18:53:33;;;;;;;5.13;4.63;;;15.90;34.00;;;;;;10464289;28;20221;-72
2023/03/19 18:58:38;;;;;;;8.43;7.60;;;15.80;34.00;;;;;;10466887;28;20594;-72
2023/03/19 19:03:42;;;;;;;5.83;5.33;;;15.80;34.30;;;;;;10462933;28;20399;-72
2023/03/19 19:08:45;;;;;;;4.33;3.93;;;15.60;34.00;;;;;;10461054;28;20713;-73
2023/03/19 19:13:53;;;;;;;3.93;3.10;;;15.40;34.40;;;;;;10465497;28;20736;-73
2023/03/19 19:18:58;;;;;;;3.90;3.50;;;15.30;35.10;;;;;;10463113;28;20233;-73
2023/03/19 19:24:01;;;;;;;4.27;3.60;;;15.30;35.00;;;;;;10461686;28;20243;-73
2023/03/19 19:29:06;;;;;;;4.90;3.67;;;15.30;35.10;;;;;;10416841;28;20249;-73
2023/03/19 19:34:12;;;;;;;3.80;3.50;;;15.30;35.50;;;;;;10421098;28;20228;-72
2023/03/19 19:39:16;;;;;;;3.90;3.60;;;15.30;35.50;;;;;;10462204;28;20228;-73
2023/03/19 19:44:22;;;;;;;6.53;5.93;;;15.30;35.50;;;;;;10464285;28;20232;-73
2023/03/19 19:49:26;;;;;;;6.47;5.07;;;15.30;36.20;;;;;;10460004;28;20604;-73
2023/03/19 19:54:29;;;;;;;4.07;3.70;;;15.20;35.70;;;;;;10458367;28;20333;-73
2023/03/19 19:59:34;;;;;;;3.80;3.17;;;15.20;35.70;;;;;;10460253;28;20237;-72
2023/03/19 20:04:38;;;;;;;4.63;4.00;;;15.20;36.00;;;;;;10455851;28;20709;-72
2023/03/19 20:09:41;;;;;;;3.57;3.27;;;15.10;36.00;;;;;;10456889;28;20229;-72
2023/03/19 20:14:46;;;;;;;7.97;7.17;;;15.10;36.00;;;;;;10463936;28;20216;-72
2023/03/19 20:19:50;;;;;;;6.10;5.30;;;15.00;36.40;;;;;;10461331;28;20704;-72
2023/03/19 20:24:53;;;;;;;5.10;4.47;;;14.90;36.30;;;;;;10459080;28;20255;-72
2023/03/19 20:29:58;;;;;;;3.23;2.93;;;14.80;36.50;;;;;;10459078;28;20235;-72
2023/03/19 20:35:03;;;;;;;3.40;3.10;;;14.70;37.30;;;;;;10461052;28;20720;-72
2023/03/19 20:40:07;;;;;;;3.93;3.60;;;14.50;37.90;;;;;;10458808;28;20224;-72
2023/03/19 20:45:18;;;;;;;3.33;3.03;;;14.30;38.20;;;;;;10465827;28;20220;-71
2023/03/19 20:50:24;;;;;;;3.77;3.20;;;14.10;39.70;;;;;;10455687;28;20236;-71
2023/03/19 20:55:30;;;;;;;3.10;2.90;;;13.90;39.10;;;;;;10461102;28;20227;-71
2023/03/19 21:00:35;;;;;;;3.30;2.90;;;13.70;39.00;;;;;;10459203;28;20688;-72
2023/03/19 21:05:39;;;;;;;3.53;3.23;;;13.70;39.30;;;;;;10454151;28;20224;-69
2023/03/19 21:10:43;;;;;;;4.27;3.10;;;13.60;39.00;;;;;;10452418;28;20232;-72
2023/03/19 21:15:49;;;;;;;2.50;2.30;;;13.60;39.10;;;;;;10453813;28;20224;-69
2023/03/19 21:20:55;;;;;;;3.10;2.90;;;13.60;39.40;;;;;;10464609;28;20314;-70
2023/03/19 21:26:03;;;;;;;3.33;3.07;;;13.70;39.30;;;;;;10460770;28;20236;-69
2023/03/19 21:31:12;;;;;;;3.43;2.50;;;13.80;39.20;;;;;;10458166;28;20231;-69
2023/03/19 21:36:15;;;;;;;3.60;2.50;;;13.80;39.30;;;;;;10456469;28;20287;-69
2023/03/19 21:41:23;;;;;;;2.87;2.67;;;13.90;38.90;;;;;;10450847;28;20247;-69
2023/03/19 21:46:31;;;;;;;2.90;2.70;;;14.00;39.50;;;;;;10448262;28;20764;-71
2023/03/19 21:51:34;;;;;;;2.90;2.70;;;14.00;39.30;;;;;;10452814;28;20228;-72
2023/03/19 21:56:41;;;;;;;3.30;3.10;;;14.10;38.60;;;;;;10461066;28;20228;-72
2023/03/19 22:01:46;;;;;;;2.53;2.40;;;14.10;39.00;;;;;;10458492;28;20228;-72
2023/03/19 22:06:49;;;;;;;2.57;2.37;;;14.20;38.70;;;;;;10460149;28;20282;-71
2023/03/19 22:11:52;;;;;;;3.00;2.43;;;14.10;38.00;;;;;;10463342;28;20220;-72
2023/03/19 22:16:57;;;;;;;2.50;2.30;;;14.00;37.90;;;;;;10455660;28;20228;-71
2023/03/19 22:22:00;;;;;;;2.13;2.00;;;13.90;38.30;;;;;;10462327;28;20233;-72
2023/03/19 22:27:04;;;;;;;2.10;2.00;;;13.90;37.90;;;;;;10465509;28;20231;-72
2023/03/19 22:32:15;;;;;;;2.40;2.20;;;13.80;38.10;;;;;;10471842;28;20225;-72
2023/03/19 22:37:25;;;;;;;2.87;2.20;;;13.80;39.00;;;;;;10462983;28;20248;-71
2023/03/19 22:42:28;;;;;;;2.47;2.27;;;13.70;38.80;;;;;;10471942;28;20228;-71
2023/03/19 22:47:37;;;;;;;3.13;2.60;;;13.70;37.90;;;;;;10468749;28;20591;-72
2023/03/19 22:52:41;;;;;;;3.23;2.80;;;13.70;38.60;;;;;;10469718;28;20245;-72
2023/03/19 22:57:44;;;;;;;2.37;2.27;;;13.60;37.90;;;;;;10464225;28;20235;-71
2023/03/19 23:02:53;;;;;;;3.43;3.13;;;13.50;38.00;;;;;;10465028;28;20224;-71
2023/03/19 23:07:57;;;;;;;2.80;2.60;;;13.40;38.50;;;;;;10464902;28;20228;-71
2023/03/19 23:13:00;;;;;;;2.73;2.37;;;13.40;38.00;;;;;;10462222;28;20240;-71
2023/03/19 23:18:14;;;;;;;2.80;2.60;;;13.30;38.00;;;;;;10460276;28;20220;-71
2023/03/19 23:23:18;;;;;;;3.07;2.53;;;13.30;38.70;;;;;;10464875;28;20216;-71
2023/03/19 23:28:23;;;;;;;2.37;2.17;;;13.30;37.70;;;;;;10463625;28;20250;-71
2023/03/19 23:33:28;;;;;;;2.67;2.50;;;13.20;37.90;;;;;;10463824;28;20229;-71
2023/03/19 23:38:31;;;;;;;2.80;2.60;;;13.20;37.90;;;;;;10463795;28;20231;-71
2023/03/19 23:43:35;;;;;;;3.07;2.87;;;13.10;37.50;;;;;;10464642;28;20228;-71
2023/03/19 23:48:40;;;;;;;3.00;2.80;;;13.10;37.60;;;;;;10462652;28;20233;-71
2023/03/19 23:53:44;;;;;;;2.90;2.70;;;12.90;37.70;;;;;;10456884;28;20826;-71
2023/03/19 23:58:49;;;;;;;2.83;2.57;;;12.80;37.70;;;;;;10459889;28;20256;-71
